Flight Track Log - Related Links

Times and Time Zones

All times are in EDT time to prevent confusion due to time zone crossing. See the UAL395 flight status page for this flight to view local times or setup timezone preferences in your user account.

Time Position Orientation Groundspeed Altitude Reporting Facility
EDT Latitude Longitude Course Direction KTS MPH feet Rate Location/Type
Thu 02:39:42 PM 38.9333 -77.5333 270° West 185 213 1,700  Level Potomac TRACON
Thu 02:40:42 PM 38.9333 -77.6167 270° West 247 284 4,300 2,914 Climbing Potomac TRACON
Thu 02:41:00 PM 38.8781 -77.8369 260° West  Level FlightAware Approximate
Thu 02:42:00 PM 38.8828 -77.9649 293° West  Level FlightAware Approximate
Thu 02:42:02 PM 38.8842 -77.7144 237° Southwest 277 319 8,500  Level Washington Center
Thu 02:43:00 PM 38.9147 -78.0920 288° West  Level FlightAware Approximate
Thu 02:43:03 PM 38.8428 -77.8172 243° Southwest 284 327 10,800  Level Washington Center
Thu 02:44:00 PM 38.9500 -78.2157 270° West  Level FlightAware Approximate
Thu 02:44:04 PM 38.8303 -77.9261 262° West 326 375 13,400  Level Washington Center
Thu 02:45:02 PM 38.8297 -78.0619 270° West 338 389 15,400 2,136 Climbing Washington Center
Thu 02:46:02 PM 38.8625 -78.1831 289° West 361 415 17,600 2,380 Climbing Washington Center
Thu 02:47:03 PM 38.8867 -78.3200 283° West 374 430 20,200 2,218 Climbing Washington Center
Thu 02:48:01 PM 38.9106 -78.4594 282° West 392 451 22,000 1,714 Climbing Washington Center
Thu 02:49:02 PM 38.9364 -78.5992 283° West 398 458 23,600 1,475 Climbing Washington Center
Thu 02:50:03 PM 38.9597 -78.7444 282° West 403 464 25,000 1,328 Climbing Washington Center
Thu 02:51:04 PM 38.9808 -78.8922 280° West 415 478 26,300 1,220 Climbing Washington Center
Thu 02:52:01 PM 38.9867 -79.0500 273° West 429 494 27,400 1,017 Climbing Washington Center
Thu 02:53:02 PM 38.9903 -79.2103 272° West 447 514 28,300 893 Climbing Washington Center
Thu 02:54:02 PM 38.9958 -79.3736 273° West 453 521 29,200 1,350 Climbing Washington Center
Thu 02:55:02 PM 38.9969 -79.5339 271° West 459 528 31,000 1,736 Climbing Washington Center
Thu 02:56:03 PM 39.0014 -79.7106 272° West 459 528 32,700 1,513 Climbing Washington Center
Thu 02:57:01 PM 39.0147 -79.8664 276° West 449 517 34,000 1,200 Climbing Washington Center
Thu 02:57:58 PM 39.0431 -80.0028 285° West 440 506 35,000 1,059 Climbing Indianapolis Center
Thu 02:59:00 PM 39.0544 -80.1436 276° West 434 499 36,100 1,113 Climbing Indianapolis Center
Thu 03:00:02 PM 39.0667 -80.2967 276° West 432 497 37,300 919 Climbing Indianapolis Center
Thu 03:01:04 PM 39.0819 -80.4786 276° West 426 490 38,000 339 Climbing Indianapolis Center
Thu 03:02:06 PM 39.0936 -80.6281 276° West 423 487 38,000  Level Indianapolis Center
Thu 03:03:08 PM 39.1056 -80.7792 276° West 426 490 38,000  Level Indianapolis Center
Thu 03:04:10 PM 39.1172 -80.9317 276° West 429 494 38,000  Level Indianapolis Center
Thu 03:05:12 PM 39.1381 -81.0814 280° West 430 495 38,000  Level Indianapolis Center
Thu 03:06:14 PM 39.1828 -81.2222 292° West 429 494 38,000 -48 Level Indianapolis Center
Thu 03:07:16 PM 39.2492 -81.3822 298° West 424 488 37,900  Descending Indianapolis Center
Thu 03:08:18 PM 39.3044 -81.5186 298° West 430 495 38,000 48 Climbing Indianapolis Center
Thu 03:09:20 PM 39.3589 -81.6542 297° West 429 494 38,000  Level Indianapolis Center
Thu 03:10:22 PM 39.4133 -81.7889 298° West 425 489 38,000  Level Indianapolis Center
Thu 03:11:24 PM 39.4675 -81.9247 297° West 425 489 38,000  Level Indianapolis Center
Thu 03:12:26 PM 39.5222 -82.0603 298° West 425 489 38,000  Level Indianapolis Center
Thu 03:13:28 PM 39.5800 -82.2072 297° West 420 483 38,000 -48 Level Indianapolis Center
Thu 03:14:30 PM 39.6328 -82.3408 297° West 415 478 37,900 -48 Descending Indianapolis Center
Thu 03:15:32 PM 39.6944 -82.4953 297° West 410 472 37,900  Level Indianapolis Center
Thu 03:16:34 PM 39.7456 -82.6269 297° West 408 470 37,900  Level Indianapolis Center
Thu 03:17:37 PM 39.7978 -82.7597 297° West 409 471 37,900 48 Level Indianapolis Center
Thu 03:18:39 PM 39.8497 -82.8917 297° West 407 468 38,000 48 Climbing Indianapolis Center
Thu 03:19:41 PM 39.9006 -83.0233 297° West 406 467 38,000  Level Indianapolis Center
Thu 03:20:43 PM 39.9514 -83.1550 297° West 407 468 38,000  Level Indianapolis Center
Thu 03:21:45 PM 40.0106 -83.3064 297° West 404 465 38,000  Level Indianapolis Center
Thu 03:22:47 PM 40.0594 -83.4367 296° West 402 463 38,000  Level Indianapolis Center
Thu 03:23:49 PM 40.1089 -83.5667 296° West 400 460 38,000 -48 Level Indianapolis Center
Thu 03:24:51 PM 40.1586 -83.6967 297° West 399 459 37,900  Descending Indianapolis Center
Thu 03:25:53 PM 40.2069 -83.8261 296° West 395 455 38,000 48 Climbing Indianapolis Center
Thu 03:26:55 PM 40.2639 -83.9772 296° West 396 456 38,000  Level Indianapolis Center
Thu 03:27:57 PM 40.3064 -84.1064 293° West 387 445 38,000 -484 Level Indianapolis Center
Thu 03:28:59 PM 40.3292 -84.2456 282° West 389 448 37,000 -1,016 Descending Indianapolis Center
Thu 03:30:01 PM 40.3681 -84.3764 291° West 393 452 35,900 -823 Descending Indianapolis Center
Thu 03:31:03 PM 40.4431 -84.4750 315° West 381 438 35,300 -823 Descending Indianapolis Center
Thu 03:32:05 PM 40.5183 -84.5750 315° West 382 440 34,200 -677 Descending Indianapolis Center
Thu 03:33:07 PM 40.5967 -84.6775 315° West 390 449 33,900 -97 Descending Indianapolis Center
Thu 03:34:09 PM 40.6867 -84.7981 315° West 393 452 34,000  Climbing Indianapolis Center
Thu 03:35:11 PM 40.7644 -84.8997 315° West 392 451 33,900  Descending Indianapolis Center
Thu 03:35:50 PM 40.8122 -84.9658 314° West 391 450 34,000 59 Climbing Chicago Center
Thu 03:36:52 PM 40.8672 -85.0889 301° West 388 447 34,000  Level Chicago Center
Thu 03:37:54 PM 40.9228 -85.2108 301° West 388 447 34,000  Level Chicago Center
Thu 03:38:56 PM 40.9778 -85.3356 300° West 390 449 34,000  Level Chicago Center
Thu 03:39:58 PM 41.0319 -85.4600 300° West 390 449 34,000 -672 Level Chicago Center
Thu 03:41:01 PM 41.0869 -85.5844 300° West 390 449 32,600 -2,112 Descending Chicago Center
Thu 03:42:03 PM 41.1422 -85.7114 300° West 396 456 29,600 -3,242 Descending Chicago Center
Thu 03:43:05 PM 41.2108 -85.8672 300° West 405 466 25,900 -2,226 Descending Chicago Center
Thu 03:44:07 PM 41.2667 -85.9978 300° West 407 468 25,000 -435 Descending Chicago Center
Thu 03:45:09 PM 41.2950 -86.1489 284° West 421 484 25,000 -1,210 Level Chicago Center
Thu 03:46:11 PM 41.3136 -86.2997 279° West 418 481 22,500 -2,129 Descending Chicago Center
Thu 03:47:13 PM 41.3628 -86.4319 296° West 406 467 20,600 -2,371 Descending Chicago Center
Thu 03:48:15 PM 41.4228 -86.5519 304° West 394 453 17,600 -3,290 Descending Chicago Center
Thu 03:49:17 PM 41.4908 -86.6936 303° West 381 438 13,800 -2,688 Descending Chicago Center
Thu 03:50:20 PM 41.5617 -86.7836 316° Northwest 384 442 12,000 -864 Descending Chicago Center
Thu 03:51:22 PM 41.6567 -86.7936 356° North 352 405 12,000 -435 Level Chicago Center
Thu 03:52:24 PM 41.7497 -86.8061 354° North 342 394 11,100 -484 Descending Chicago Center
Thu 03:53:26 PM 41.8592 -86.8300 351° North 336 387 11,000 -48 Descending Chicago Center
Thu 03:54:28 PM 41.9117 -86.9217 308° West 324 373 11,000 -194 Level Chicago Center
Thu 03:55:30 PM 41.9517 -87.0253 297° West 317 365 10,600 -677 Descending Chicago Center
Thu 03:56:32 PM 41.9839 -87.1131 296° West 275 316 9,600 -1,113 Descending Chicago Center
Thu 03:57:34 PM 41.9847 -87.2089 271° West 260 299 8,300 -1,258 Descending Chicago Center
Thu 03:58:36 PM 41.9808 -87.3197 267° West 251 289 7,000 -581 Descending Chicago Center
Thu 03:59:38 PM 41.9831 -87.4075 272° West 239 275 7,100 -192 Climbing Chicago Center
Thu 04:00:41 PM 41.9817 -87.4839 269° West 213 245 6,600 -624 Descending Chicago Center
Thu 04:01:43 PM 41.9828 -87.5594 271° West 206 237 5,800 -1,210 Descending Chicago Center
Thu 04:02:45 PM 41.9831 -87.6375 270° West 182 209 4,100 -1,645 Descending Chicago Center

Login

Don't have an account? Register now (free) for customized features, flight alerts, and more!